Time;durP1;ratioP1;P1;durP2;ratioP2;P2;SDS_P1;SDS_P2;PMS_P1;PMS_P2;Temp;Humidity;BMP_temperature;BMP_pressure;BME280_temperature;BME280_humidity;BME280_pressure;Samples;Min_cycle;Max_cycle;Signal;HPM_P1;HPM_P2
2022/04/29 00:00:18;;;;;;;;;;;18.10;93.30;;;;;;5054206;28;19920;-69
2022/04/29 00:02:45;;;;;;;;;;;18.10;93.40;;;;;;5052512;28;19955;-70
2022/04/29 00:05:11;;;;;;;;;;;18.10;93.60;;;;;;5053382;28;19956;-70
2022/04/29 00:07:38;;;;;;;;;;;18.00;93.90;;;;;;5053626;28;19909;-69
2022/04/29 00:10:08;;;;;;;;;;;18.00;94.30;;;;;;5051899;28;19995;-69
2022/04/29 00:12:35;;;;;;;;;;;18.00;94.50;;;;;;5053399;28;19909;-69
2022/04/29 00:15:01;;;;;;;;;;;17.90;94.70;;;;;;5053365;28;19942;-70
2022/04/29 00:17:27;;;;;;;;;;;18.00;94.80;;;;;;5053228;28;20289;-70
2022/04/29 00:19:52;;;;;;;;;;;17.90;94.80;;;;;;5053112;28;19909;-70
2022/04/29 00:22:18;;;;;;;;;;;17.80;94.70;;;;;;5053488;28;19913;-68
2022/04/29 00:24:44;;;;;;;;;;;17.80;94.80;;;;;;5053134;28;19932;-69
2022/04/29 00:27:10;;;;;;;;;;;17.80;94.90;;;;;;5053206;28;20341;-68
2022/04/29 00:29:36;;;;;;;;;;;17.60;94.90;;;;;;5052962;28;19928;-68
2022/04/29 00:32:02;;;;;;;;;;;17.60;95.30;;;;;;5051330;28;19978;-69
2022/04/29 00:34:27;;;;;;;;;;;17.50;95.40;;;;;;5052735;28;19916;-69
2022/04/29 00:36:53;;;;;;;;;;;17.50;94.70;;;;;;5052559;28;19940;-69
2022/04/29 00:39:19;;;;;;;;;;;17.50;94.90;;;;;;5051725;28;20371;-69
2022/04/29 00:41:45;;;;;;;;;;;17.50;94.60;;;;;;5052157;28;20050;-70
2022/04/29 00:44:11;;;;;;;;;;;17.50;95.00;;;;;;5052912;28;20273;-68
2022/04/29 00:46:40;;;;;;;;;;;17.40;95.30;;;;;;5051151;28;19928;-69
2022/04/29 00:49:06;;;;;;;;;;;17.40;95.50;;;;;;5052369;28;19928;-69
2022/04/29 00:51:35;;;;;;;;;;;17.30;95.90;;;;;;5052477;28;19981;-70
2022/04/29 00:54:03;;;;;;;;;;;17.30;96.20;;;;;;5052368;28;20343;-69
2022/04/29 00:56:29;;;;;;;;;;;17.30;96.20;;;;;;5051188;28;20304;-68
2022/04/29 00:59:00;;;;;;;;;;;17.20;96.20;;;;;;5052616;28;19924;-68
2022/04/29 01:01:26;;;;;;;;;;;17.30;96.00;;;;;;5052570;28;19916;-69
2022/04/29 01:03:54;;;;;;;;;;;17.30;96.00;;;;;;5052054;28;19909;-68
2022/04/29 01:06:20;;;;;;;;;;;17.30;96.20;;;;;;5052171;28;19956;-69
2022/04/29 01:08:46;;;;;;;;;;;17.30;95.90;;;;;;5052188;28;19959;-68
2022/04/29 01:11:11;;;;;;;;;;;17.30;95.60;;;;;;5052307;28;19915;-69
2022/04/29 01:13:37;;;;;;;;;;;17.30;95.70;;;;;;5052005;28;19932;-69
2022/04/29 01:16:06;;;;;;;;;;;17.20;95.80;;;;;;5052037;28;19940;-69
2022/04/29 01:18:32;;;;;;;;;;;17.20;95.50;;;;;;5052132;28;19935;-69
2022/04/29 01:21:03;;;;;;;;;;;17.20;94.80;;;;;;5052096;28;19909;-69
2022/04/29 01:23:29;;;;;;;;;;;17.20;95.00;;;;;;5051750;28;19959;-69
2022/04/29 01:25:56;;;;;;;;;;;17.10;94.90;;;;;;5050466;28;19909;-70
2022/04/29 01:28:23;;;;;;;;;;;17.20;94.70;;;;;;5051791;28;20361;-69
2022/04/29 01:30:51;;;;;;;;;;;17.20;93.90;;;;;;5050319;28;19908;-68
2022/04/29 01:33:18;;;;;;;;;;;17.30;93.60;;;;;;5051688;28;19909;-70
2022/04/29 01:35:44;;;;;;;;;;;17.20;93.60;;;;;;5051358;28;20071;-69
2022/04/29 01:38:10;;;;;;;;;;;17.20;93.70;;;;;;5051695;28;19928;-70
2022/04/29 01:40:36;;;;;;;;;;;17.20;93.30;;;;;;5051556;28;19909;-70
2022/04/29 01:43:02;;;;;;;;;;;17.20;93.10;;;;;;5051697;28;20000;-69
2022/04/29 01:45:28;;;;;;;;;;;17.10;92.90;;;;;;5048628;28;19928;-70
2022/04/29 01:47:54;;;;;;;;;;;17.10;92.50;;;;;;5043262;28;19928;-68
2022/04/29 01:50:20;;;;;;;;;;;17.10;92.60;;;;;;5039484;28;19928;-69
2022/04/29 01:52:46;;;;;;;;;;;17.00;91.80;;;;;;5013099;28;20277;-67
2022/04/29 01:55:12;;;;;;;;;;;17.10;91.00;;;;;;5031441;28;20410;-70
2022/04/29 01:57:38;;;;;;;;;;;17.00;90.30;;;;;;5031426;28;19909;-69
2022/04/29 02:00:04;;;;;;;;;;;17.20;89.80;;;;;;5031797;28;19909;-69
2022/04/29 02:02:30;;;;;;;;;;;17.20;89.10;;;;;;5037740;28;19936;-69
2022/04/29 02:04:56;;;;;;;;;;;17.20;88.80;;;;;;5051145;28;19909;-68
2022/04/29 02:07:22;;;;;;;;;;;17.20;88.60;;;;;;5051575;28;20309;-69
2022/04/29 02:09:48;;;;;;;;;;;17.20;87.80;;;;;;5051049;28;19917;-69
2022/04/29 02:12:15;;;;;;;;;;;17.20;87.30;;;;;;5051066;28;20329;-69
2022/04/29 02:14:42;;;;;;;;;;;17.20;87.10;;;;;;5051096;28;19931;-69
2022/04/29 02:17:10;;;;;;;;;;;17.10;87.10;;;;;;5051191;28;19916;-70
2022/04/29 02:19:36;;;;;;;;;;;17.10;87.40;;;;;;5051228;28;20042;-69
2022/04/29 02:22:03;;;;;;;;;;;17.00;87.60;;;;;;5050242;28;20001;-70
2022/04/29 02:24:29;;;;;;;;;;;17.00;87.50;;;;;;5051203;28;19919;-69
2022/04/29 02:26:55;;;;;;;;;;;16.90;87.40;;;;;;5051156;28;20343;-70
2022/04/29 02:29:22;;;;;;;;;;;16.90;87.30;;;;;;5051037;28;19917;-69
2022/04/29 02:31:48;;;;;;;;;;;16.90;87.60;;;;;;5051221;28;20012;-69
2022/04/29 02:34:15;;;;;;;;;;;16.90;87.90;;;;;;5050984;28;20034;-70
2022/04/29 02:36:41;;;;;;;;;;;16.90;87.80;;;;;;5050272;28;20004;-69
2022/04/29 02:39:07;;;;;;;;;;;16.90;88.00;;;;;;5050852;28;19909;-70
2022/04/29 02:41:33;;;;;;;;;;;16.80;87.60;;;;;;5050968;28;20290;-69
2022/04/29 02:43:59;;;;;;;;;;;16.80;87.70;;;;;;5050713;28;20004;-69
2022/04/29 02:46:25;;;;;;;;;;;16.80;87.30;;;;;;5051272;28;19952;-70
2022/04/29 02:48:51;;;;;;;;;;;16.80;87.70;;;;;;5050593;28;19927;-69
2022/04/29 02:51:16;;;;;;;;;;;16.90;87.10;;;;;;5051136;28;19996;-69
2022/04/29 02:53:43;;;;;;;;;;;16.90;87.20;;;;;;5050592;28;19908;-69
2022/04/29 02:56:09;;;;;;;;;;;16.90;86.10;;;;;;5050867;28;19913;-69
2022/04/29 02:58:35;;;;;;;;;;;17.00;85.70;;;;;;5050996;28;19909;-69
2022/04/29 03:01:01;;;;;;;;;;;17.00;85.80;;;;;;5050536;28;20010;-68
2022/04/29 03:03:27;;;;;;;;;;;16.90;85.80;;;;;;5050497;28;19920;-70
2022/04/29 03:05:53;;;;;;;;;;;16.90;85.60;;;;;;5053981;28;20087;-70
2022/04/29 03:08:19;;;;;;;;;;;17.00;85.30;;;;;;5052822;28;20019;-68
2022/04/29 03:10:46;;;;;;;;;;;17.00;85.40;;;;;;5054867;28;19999;-69
2022/04/29 03:13:12;;;;;;;;;;;16.90;85.40;;;;;;5054249;28;19909;-70
2022/04/29 03:15:38;;;;;;;;;;;17.00;85.50;;;;;;5054270;28;19916;-69
2022/04/29 03:18:22;;;;;;;;;;;17.00;85.40;;;;;;5054297;28;20300;-69
2022/04/29 03:20:53;;;;;;;;;;;17.10;85.10;;;;;;5054353;28;20102;-70
2022/04/29 03:23:19;;;;;;;;;;;17.10;85.10;;;;;;5054974;28;19927;-69
2022/04/29 03:25:45;;;;;;;;;;;17.10;85.10;;;;;;5055446;28;20102;-70
2022/04/29 03:28:11;;;;;;;;;;;17.10;84.20;;;;;;5055249;28;20007;-70
2022/04/29 03:30:37;;;;;;;;;;;17.10;83.50;;;;;;5053909;28;19970;-69
2022/04/29 03:33:04;;;;;;;;;;;17.10;83.40;;;;;;5053793;28;19909;-70
2022/04/29 03:35:30;;;;;;;;;;;17.10;83.60;;;;;;5053580;28;19909;-69
2022/04/29 03:37:57;;;;;;;;;;;17.00;83.60;;;;;;5055065;28;19956;-70
2022/04/29 03:40:24;;;;;;;;;;;17.00;85.20;;;;;;5053660;28;19913;-70
2022/04/29 03:42:51;;;;;;;;;;;17.00;86.60;;;;;;5055488;28;19909;-70
2022/04/29 03:45:17;;;;;;;;;;;17.00;87.00;;;;;;5055268;28;20291;-70
2022/04/29 03:47:43;;;;;;;;;;;17.00;86.80;;;;;;5053417;28;20003;-69
2022/04/29 03:50:09;;;;;;;;;;;16.90;88.20;;;;;;5055114;28;19975;-70
2022/04/29 03:52:44;;;;;;;;;;;16.90;86.90;;;;;;5054998;28;19956;-69
2022/04/29 03:55:09;;;;;;;;;;;16.90;85.70;;;;;;5055189;28;20345;-70
2022/04/29 03:57:35;;;;;;;;;;;16.80;87.50;;;;;;5053394;28;19911;-70
2022/04/29 04:00:01;;;;;;;;;;;16.80;86.70;;;;;;5054684;28;19909;-70
2022/04/29 04:02:28;;;;;;;;;;;16.80;86.80;;;;;;5054411;28;19909;-70
2022/04/29 04:04:54;;;;;;;;;;;16.70;86.10;;;;;;5054376;28;19920;-70
2022/04/29 04:07:19;;;;;;;;;;;16.70;84.90;;;;;;5053016;28;19912;-70
2022/04/29 04:09:45;;;;;;;;;;;16.70;86.00;;;;;;5054667;28;19952;-70
2022/04/29 04:12:11;;;;;;;;;;;16.80;83.60;;;;;;5054246;28;20026;-70
2022/04/29 04:14:37;;;;;;;;;;;16.70;82.50;;;;;;5054384;28;19909;-70
2022/04/29 04:17:03;;;;;;;;;;;16.80;81.80;;;;;;5053357;28;20007;-70
2022/04/29 04:19:29;;;;;;;;;;;16.80;81.90;;;;;;5055455;28;19917;-70
2022/04/29 04:21:56;;;;;;;;;;;16.70;81.80;;;;;;5054871;28;19908;-70
2022/04/29 04:24:22;;;;;;;;;;;16.70;82.40;;;;;;5055313;28;20234;-69
2022/04/29 04:26:47;;;;;;;;;;;16.50;84.40;;;;;;5053337;28;19909;-69
2022/04/29 04:29:13;;;;;;;;;;;16.40;84.10;;;;;;5054622;28;19917;-69
2022/04/29 04:31:39;;;;;;;;;;;16.30;84.60;;;;;;5054703;28;19913;-70
2022/04/29 04:34:49;;;;;;;;;;;16.30;84.30;;;;;;5055092;28;19908;-70
2022/04/29 04:36:52;;;;;;;;;;;16.30;85.30;;;;;;5054331;28;19974;-70
2022/04/29 04:39:18;;;;;;;;;;;16.30;85.90;;;;;;5053095;28;20280;-67
2022/04/29 04:41:44;;;;;;;;;;;16.40;85.60;;;;;;5054786;28;19909;-70
2022/04/29 04:44:10;;;;;;;;;;;16.30;86.20;;;;;;5054630;28;20084;-69
2022/04/29 04:46:36;;;;;;;;;;;16.30;86.50;;;;;;5054008;28;20284;-70
2022/04/29 04:49:02;;;;;;;;;;;16.30;86.70;;;;;;5054741;28;19917;-67
2022/04/29 04:51:29;;;;;;;;;;;16.40;86.60;;;;;;5054327;28;19915;-69
2022/04/29 04:53:54;;;;;;;;;;;16.40;85.40;;;;;;5054404;28;20345;-70
2022/04/29 04:56:20;;;;;;;;;;;16.30;84.90;;;;;;5054373;28;19916;-69
2022/04/29 04:58:46;;;;;;;;;;;16.20;83.00;;;;;;5054625;28;19913;-69
2022/04/29 05:01:12;;;;;;;;;;;16.20;83.60;;;;;;5054087;28;19908;-69
2022/04/29 05:03:38;;;;;;;;;;;16.20;84.50;;;;;;5054262;28;19978;-69
2022/04/29 05:06:03;;;;;;;;;;;16.20;84.30;;;;;;5054557;28;19916;-69
2022/04/29 05:08:29;;;;;;;;;;;16.20;84.00;;;;;;5054311;28;19959;-68
2022/04/29 05:10:55;;;;;;;;;;;16.20;84.00;;;;;;5054002;28;19991;-65
2022/04/29 05:13:21;;;;;;;;;;;16.20;84.50;;;;;;5054467;28;19919;-68
2022/04/29 05:15:47;;;;;;;;;;;16.30;84.00;;;;;;5053867;28;19987;-69
2022/04/29 05:18:15;;;;;;;;;;;16.30;83.50;;;;;;5051745;28;19996;-70
2022/04/29 05:20:40;;;;;;;;;;;16.30;83.40;;;;;;5053948;28;19915;-69
2022/04/29 05:23:06;;;;;;;;;;;16.30;83.40;;;;;;5054058;28;19908;-76
2022/04/29 05:25:33;;;;;;;;;;;16.40;82.40;;;;;;5052644;28;19909;-75
2022/04/29 05:27:59;;;;;;;;;;;16.40;82.40;;;;;;5053386;28;19989;-74
2022/04/29 05:30:30;;;;;;;;;;;16.40;82.90;;;;;;5050479;28;19912;-68
2022/04/29 05:32:56;;;;;;;;;;;16.30;86.30;;;;;;5053349;28;20276;-69
2022/04/29 05:35:22;;;;;;;;;;;16.40;88.30;;;;;;5053447;28;20070;-70
2022/04/29 05:37:48;;;;;;;;;;;16.50;87.90;;;;;;5053041;28;19928;-70
2022/04/29 05:42:58;;;;;;;;;;;16.50;87.90;;;;;;5053791;28;20385;-70
2022/04/29 05:45:24;;;;;;;;;;;16.60;87.40;;;;;;5052895;28;19909;-70
2022/04/29 05:47:50;;;;;;;;;;;16.60;85.30;;;;;;5052568;28;19908;-70
2022/04/29 05:50:16;;;;;;;;;;;16.70;86.70;;;;;;5052795;28;19919;-70
2022/04/29 05:52:42;;;;;;;;;;;16.70;86.20;;;;;;5052526;28;19909;-70
2022/04/29 05:55:08;;;;;;;;;;;16.70;87.90;;;;;;5052128;28;20407;-70
2022/04/29 05:57:33;;;;;;;;;;;16.80;87.80;;;;;;5051757;28;20079;-70
2022/04/29 05:59:59;;;;;;;;;;;16.80;86.70;;;;;;5051823;28;19991;-69
2022/04/29 06:02:28;;;;;;;;;;;16.80;85.80;;;;;;5051531;28;19913;-70
2022/04/29 06:04:54;;;;;;;;;;;16.80;85.20;;;;;;5050071;28;19917;-69
2022/04/29 06:07:20;;;;;;;;;;;16.80;86.00;;;;;;5052369;28;20299;-70
2022/04/29 06:09:46;;;;;;;;;;;16.80;92.30;;;;;;5051252;28;20020;-75
2022/04/29 06:12:11;;;;;;;;;;;16.70;94.30;;;;;;5051524;28;19909;-73
2022/04/29 06:14:38;;;;;;;;;;;16.70;95.70;;;;;;5051434;28;20013;-67
2022/04/29 06:17:04;;;;;;;;;;;16.60;97.00;;;;;;5052028;28;19916;-69
2022/04/29 06:19:30;;;;;;;;;;;16.60;98.90;;;;;;5052179;28;19909;-69
2022/04/29 06:21:56;;;;;;;;;;;16.70;99.70;;;;;;5052660;28;20446;-69
2022/04/29 06:24:22;;;;;;;;;;;16.60;99.90;;;;;;5050691;28;19916;-70
2022/04/29 06:26:48;;;;;;;;;;;16.60;99.90;;;;;;5051917;28;19962;-68
2022/04/29 06:29:15;;;;;;;;;;;16.60;99.90;;;;;;5052042;28;20027;-69
2022/04/29 06:31:41;;;;;;;;;;;16.70;99.90;;;;;;5052023;28;19909;-69
2022/04/29 06:34:07;;;;;;;;;;;16.80;99.90;;;;;;5052320;28;19939;-69
2022/04/29 06:36:34;;;;;;;;;;;16.80;99.90;;;;;;5051713;28;19921;-67
2022/04/29 06:38:59;;;;;;;;;;;16.90;99.90;;;;;;5052536;28;19920;-67
2022/04/29 06:41:25;;;;;;;;;;;16.90;99.90;;;;;;5055943;28;20249;-68
2022/04/29 06:43:53;;;;;;;;;;;16.90;99.90;;;;;;5055702;28;19913;-67
2022/04/29 06:46:19;;;;;;;;;;;17.00;99.90;;;;;;5054255;28;20377;-67
2022/04/29 06:48:45;;;;;;;;;;;17.10;99.90;;;;;;5055164;28;19986;-67
2022/04/29 06:51:11;;;;;;;;;;;17.10;99.90;;;;;;5055766;28;20385;-68
2022/04/29 06:53:40;;;;;;;;;;;17.20;99.90;;;;;;5055604;28;19908;-68
2022/04/29 06:56:06;;;;;;;;;;;17.20;99.90;;;;;;5055555;28;19916;-67
2022/04/29 06:58:32;;;;;;;;;;;17.20;99.90;;;;;;5055885;28;19909;-67
2022/04/29 07:00:58;;;;;;;;;;;17.30;99.90;;;;;;5055321;28;20011;-67
2022/04/29 07:03:23;;;;;;;;;;;17.30;99.90;;;;;;5055434;28;20359;-67
2022/04/29 07:05:54;;;;;;;;;;;17.30;99.90;;;;;;5055512;28;19919;-67
2022/04/29 07:08:21;;;;;;;;;;;17.20;99.90;;;;;;5054960;28;20012;-68
2022/04/29 07:10:47;;;;;;;;;;;17.30;99.90;;;;;;5056146;28;19920;-68
2022/04/29 07:13:13;;;;;;;;;;;17.30;99.90;;;;;;5055548;28;19908;-67
2022/04/29 07:15:43;;;;;;;;;;;17.40;99.90;;;;;;5055387;28;19921;-68
2022/04/29 07:18:12;;;;;;;;;;;17.70;99.90;;;;;;5055654;28;19927;-69
2022/04/29 07:20:38;;;;;;;;;;;17.80;99.80;;;;;;5053969;28;20418;-69
2022/04/29 07:23:03;;;;;;;;;;;17.90;99.50;;;;;;5054961;28;19956;-68
2022/04/29 07:25:30;;;;;;;;;;;18.10;99.90;;;;;;5055571;28;20337;-68
2022/04/29 07:27:56;;;;;;;;;;;18.20;99.90;;;;;;5055541;28;19908;-70
2022/04/29 07:30:21;;;;;;;;;;;18.40;99.90;;;;;;5054063;28;19920;-70
2022/04/29 07:32:47;;;;;;;;;;;18.50;99.90;;;;;;5055713;28;19909;-67
2022/04/29 07:43:26;;;;;;;;;;;18.90;99.90;;;;;;5055132;28;19932;-68
2022/04/29 07:45:52;;;;;;;;;;;19.00;99.90;;;;;;5053293;28;20258;-67
2022/04/29 07:48:18;;;;;;;;;;;19.20;99.80;;;;;;5051798;28;19932;-68
2022/04/29 07:50:44;;;;;;;;;;;19.20;99.80;;;;;;5052754;28;19961;-69
2022/04/29 07:53:10;;;;;;;;;;;19.30;99.90;;;;;;5053695;28;19913;-67
2022/04/29 07:55:36;;;;;;;;;;;19.30;99.80;;;;;;5053412;28;19909;-69
2022/04/29 07:58:03;;;;;;;;;;;19.40;99.80;;;;;;5051847;28;19909;-69
2022/04/29 08:00:31;;;;;;;;;;;19.40;99.60;;;;;;5053547;28;20413;-68
2022/04/29 08:03:00;;;;;;;;;;;19.50;99.90;;;;;;5053984;28;19920;-68
2022/04/29 08:05:26;;;;;;;;;;;19.20;99.30;;;;;;5053676;28;20224;-68
2022/04/29 08:07:54;;;;;;;;;;;19.00;99.50;;;;;;5053723;28;19921;-68
2022/04/29 08:10:20;;;;;;;;;;;18.80;99.50;;;;;;5053261;28;20340;-69
2022/04/29 08:12:47;;;;;;;;;;;18.80;99.80;;;;;;5053723;28;19937;-68
2022/04/29 08:15:13;;;;;;;;;;;18.90;99.90;;;;;;5051787;28;19908;-69
2022/04/29 08:17:39;;;;;;;;;;;18.80;98.20;;;;;;5053963;28;20248;-68
2022/04/29 08:20:08;;;;;;;;;;;18.80;97.00;;;;;;5054316;28;19913;-68
2022/04/29 08:22:34;;;;;;;;;;;18.80;96.30;;;;;;5053988;28;19908;-68
2022/04/29 08:25:00;;;;;;;;;;;18.90;96.60;;;;;;5054516;28;19919;-67
2022/04/29 08:27:28;;;;;;;;;;;19.00;96.70;;;;;;5054231;28;19962;-67
2022/04/29 08:29:54;;;;;;;;;;;19.20;95.90;;;;;;5054871;28;19916;-68
2022/04/29 08:32:20;;;;;;;;;;;19.60;95.30;;;;;;5054129;28;20011;-68
2022/04/29 08:34:47;;;;;;;;;;;19.80;94.00;;;;;;5054089;28;19909;-69
2022/04/29 08:37:13;;;;;;;;;;;20.20;94.10;;;;;;5053798;28;19921;-69
2022/04/29 08:39:39;;;;;;;;;;;20.50;94.60;;;;;;5052641;28;19915;-69
2022/04/29 08:42:06;;;;;;;;;;;20.90;94.20;;;;;;5053784;28;20003;-68
2022/04/29 08:44:33;;;;;;;;;;;21.20;93.40;;;;;;5053981;28;19952;-68
2022/04/29 08:46:59;;;;;;;;;;;21.40;92.80;;;;;;5054197;28;19956;-69
2022/04/29 08:49:26;;;;;;;;;;;21.60;92.90;;;;;;5051785;28;19956;-66
2022/04/29 08:51:54;;;;;;;;;;;21.50;92.80;;;;;;5051017;28;19909;-69
2022/04/29 08:59:51;;;;;;;;;;;21.30;92.50;;;;;;5052611;28;19924;-69
2022/04/29 09:02:17;;;;;;;;;;;21.40;93.10;;;;;;5052352;28;19909;-68
2022/04/29 09:04:43;;;;;;;;;;;21.60;92.00;;;;;;5052385;28;20000;-69
2022/04/29 09:07:09;;;;;;;;;;;21.70;91.80;;;;;;5052814;28;20326;-69
2022/04/29 09:09:35;;;;;;;;;;;21.90;90.90;;;;;;5052626;28;19921;-68
2022/04/29 09:12:17;;;;;;;;;;;22.10;90.40;;;;;;5052339;28;19983;-68
2022/04/29 09:14:43;;;;;;;;;;;22.30;90.10;;;;;;5051126;28;19909;-68
2022/04/29 09:17:27;;;;;;;;;;;22.40;89.10;;;;;;5051017;28;19909;-68
2022/04/29 09:19:53;;;;;;;;;;;22.60;88.60;;;;;;5050782;28;20332;-68
2022/04/29 09:22:19;;;;;;;;;;;22.90;88.10;;;;;;5051520;28;19916;-68
2022/04/29 09:25:00;;;;;;;;;;;23.10;85.20;;;;;;5050634;28;19909;-69
2022/04/29 09:27:26;;;;;;;;;;;22.80;84.70;;;;;;5050288;28;19920;-69
2022/04/29 09:29:56;;;;;;;;;;;22.70;85.90;;;;;;5050757;28;19917;-69
2022/04/29 09:32:22;;;;;;;;;;;22.80;86.30;;;;;;5050850;28;19908;-67
2022/04/29 09:34:55;;;;;;;;;;;23.10;86.00;;;;;;5052031;28;19916;-68
2022/04/29 09:37:22;;;;;;;;;;;23.30;85.20;;;;;;5050094;28;20025;-69
2022/04/29 09:39:51;;;;;;;;;;;23.50;83.40;;;;;;5050395;28;19909;-69
2022/04/29 09:42:17;;;;;;;;;;;23.60;82.60;;;;;;5050667;28;19916;-69
2022/04/29 09:44:43;;;;;;;;;;;23.80;82.20;;;;;;5052141;28;19988;-67
2022/04/29 09:47:13;;;;;;;;;;;24.10;82.00;;;;;;5051979;28;20272;-67
2022/04/29 09:49:39;;;;;;;;;;;24.30;81.90;;;;;;5050094;28;20376;-68
2022/04/29 09:52:44;;;;;;;;;;;24.40;80.90;;;;;;5051351;28;19908;-69
2022/04/29 09:55:10;;;;;;;;;;;24.30;82.20;;;;;;5052064;28;19913;-68
2022/04/29 09:57:45;;;;;;;;;;;24.40;81.00;;;;;;5051588;28;19909;-68
2022/04/29 10:00:12;;;;;;;;;;;24.20;81.70;;;;;;5050173;28;19916;-68
2022/04/29 10:02:37;;;;;;;;;;;24.40;81.30;;;;;;5051693;28;19909;-69
2022/04/29 10:05:04;;;;;;;;;;;24.30;82.00;;;;;;5051178;28;19915;-68
2022/04/29 10:07:33;;;;;;;;;;;23.90;83.40;;;;;;5051117;28;19948;-68
2022/04/29 10:09:59;;;;;;;;;;;23.90;84.70;;;;;;5050995;28;19917;-68
2022/04/29 10:12:27;;;;;;;;;;;23.90;85.00;;;;;;5048709;28;19909;-67
2022/04/29 10:14:57;;;;;;;;;;;24.00;84.50;;;;;;5048913;28;19923;-68
2022/04/29 10:23:10;;;;;;;;;;;24.30;82.80;;;;;;5052265;28;19931;-69
2022/04/29 10:25:39;;;;;;;;;;;24.30;82.10;;;;;;5051755;28;20014;-68
2022/04/29 10:28:06;;;;;;;;;;;24.30;82.30;;;;;;5052088;28;19909;-70
2022/04/29 10:30:33;;;;;;;;;;;24.40;82.00;;;;;;5052412;28;19920;-68
2022/04/29 10:33:09;;;;;;;;;;;24.20;80.90;;;;;;5052333;28;20237;-68
2022/04/29 10:35:43;;;;;;;;;;;23.90;82.20;;;;;;5052258;28;19955;-68
2022/04/29 10:38:22;;;;;;;;;;;23.60;83.40;;;;;;5052649;28;20253;-69
2022/04/29 10:41:10;;;;;;;;;;;23.40;84.60;;;;;;5051163;28;19909;-68
2022/04/29 10:43:59;;;;;;;;;;;23.60;83.80;;;;;;5052664;28;19916;-68
2022/04/29 10:46:27;;;;;;;;;;;23.80;83.40;;;;;;5046503;28;19915;-68
2022/04/29 10:48:54;;;;;;;;;;;23.90;84.00;;;;;;5051824;28;19917;-68
2022/04/29 10:51:20;;;;;;;;;;;23.80;83.60;;;;;;5051714;28;19908;-69
2022/04/29 10:53:48;;;;;;;;;;;24.00;83.60;;;;;;5052536;28;19913;-68
2022/04/29 10:56:32;;;;;;;;;;;23.80;84.00;;;;;;5050509;28;20306;-69
2022/04/29 10:59:03;;;;;;;;;;;23.90;85.30;;;;;;5052376;28;19908;-69
2022/04/29 11:01:33;;;;;;;;;;;24.00;85.70;;;;;;5050240;28;20411;-69
2022/04/29 11:03:59;;;;;;;;;;;24.30;84.40;;;;;;5050806;28;20019;-69
2022/04/29 11:06:35;;;;;;;;;;;24.60;83.40;;;;;;5050853;28;19909;-68
2022/04/29 11:09:01;;;;;;;;;;;24.50;81.30;;;;;;5051325;28;20359;-70
2022/04/29 11:11:43;;;;;;;;;;;24.00;80.60;;;;;;5050809;28;19913;-68
2022/04/29 11:14:12;;;;;;;;;;;24.10;81.80;;;;;;5051215;28;19913;-69
2022/04/29 11:16:48;;;;;;;;;;;24.20;82.50;;;;;;5051279;28;19909;-69
2022/04/29 11:19:20;;;;;;;;;;;24.40;81.20;;;;;;5050129;28;20022;-69
2022/04/29 11:24:42;;;;;;;;;;;24.80;80.20;;;;;;5052500;28;19915;-71
2022/04/29 11:27:08;;;;;;;;;;;24.60;80.90;;;;;;5054765;28;20319;-70
2022/04/29 11:29:46;;;;;;;;;;;24.80;81.30;;;;;;5055398;28;19917;-69
2022/04/29 11:32:26;;;;;;;;;;;25.10;81.60;;;;;;5055465;28;20284;-71
2022/04/29 11:35:03;;;;;;;;;;;25.00;81.60;;;;;;5055683;28;19947;-69
2022/04/29 11:37:32;;;;;;;;;;;24.80;82.70;;;;;;5055365;28;19945;-70
2022/04/29 11:40:02;;;;;;;;;;;24.60;81.50;;;;;;5054072;28;19909;-72
2022/04/29 11:42:28;;;;;;;;;;;24.00;83.50;;;;;;5055554;28;19964;-72
2022/04/29 11:44:55;;;;;;;;;;;24.10;83.70;;;;;;5055235;28;19909;-72
2022/04/29 11:47:25;;;;;;;;;;;24.10;84.30;;;;;;5055367;28;20276;-71
2022/04/29 11:49:52;;;;;;;;;;;24.40;83.40;;;;;;5054314;28;20430;-70
2022/04/29 11:52:25;;;;;;;;;;;24.60;83.60;;;;;;5054422;28;20349;-70
2022/04/29 11:55:05;;;;;;;;;;;24.50;84.70;;;;;;5053951;28;19916;-70
2022/04/29 11:57:33;;;;;;;;;;;24.60;84.90;;;;;;5053099;28;19995;-68
2022/04/29 12:00:00;;;;;;;;;;;24.90;84.60;;;;;;5053888;28;19938;-71
2022/04/29 12:02:26;;;;;;;;;;;25.20;83.90;;;;;;5054226;28;20377;-70
2022/04/29 12:04:59;;;;;;;;;;;25.40;83.60;;;;;;5054898;28;19924;-70
2022/04/29 12:07:29;;;;;;;;;;;25.40;83.00;;;;;;5054735;28;19961;-70
2022/04/29 12:09:56;;;;;;;;;;;25.30;83.30;;;;;;5053336;28;19926;-69
2022/04/29 12:12:22;;;;;;;;;;;25.00;84.00;;;;;;5054751;28;20463;-69
2022/04/29 12:14:48;;;;;;;;;;;25.10;84.90;;;;;;5054675;28;19947;-70
2022/04/29 12:17:15;;;;;;;;;;;25.30;84.80;;;;;;5055536;28;19948;-70
2022/04/29 12:19:41;;;;;;;;;;;25.10;85.80;;;;;;5055062;28;19909;-70
2022/04/29 12:22:09;;;;;;;;;;;24.80;87.60;;;;;;5054880;28;19915;-70
2022/04/29 12:24:42;;;;;;;;;;;24.60;88.40;;;;;;5055004;28;20030;-69
2022/04/29 12:27:08;;;;;;;;;;;24.40;89.20;;;;;;5054936;28;19915;-70
2022/04/29 12:29:36;;;;;;;;;;;24.10;89.80;;;;;;5053495;28;19917;-68
2022/04/29 12:35:06;;;;;;;;;;;23.60;90.30;;;;;;5054771;28;19916;-69
2022/04/29 12:37:31;;;;;;;;;;;23.70;90.70;;;;;;5053751;28;19921;-70
2022/04/29 12:40:03;;;;;;;;;;;23.60;91.00;;;;;;5054190;28;20379;-69
2022/04/29 12:42:29;;;;;;;;;;;23.20;91.10;;;;;;5053041;28;19956;-69
2022/04/29 12:45:05;;;;;;;;;;;23.30;91.10;;;;;;5054866;28;19956;-69
2022/04/29 12:47:40;;;;;;;;;;;23.40;91.20;;;;;;5054300;28;19913;-69
2022/04/29 12:50:19;;;;;;;;;;;23.70;90.10;;;;;;5054243;28;20020;-68
2022/04/29 12:52:49;;;;;;;;;;;23.50;89.70;;;;;;5053800;28;19908;-69
2022/04/29 12:55:17;;;;;;;;;;;23.70;88.90;;;;;;5051599;28;20654;-70
2022/04/29 12:57:44;;;;;;;;;;;23.50;85.00;;;;;;5053901;28;19909;-69
2022/04/29 13:00:10;;;;;;;;;;;23.50;85.60;;;;;;5054095;28;19916;-69
2022/04/29 13:02:36;;;;;;;;;;;23.10;85.80;;;;;;5054228;28;19916;-69
2022/04/29 13:05:02;;;;;;;;;;;23.30;86.90;;;;;;5053768;28;20349;-70
2022/04/29 13:07:30;;;;;;;;;;;23.50;87.70;;;;;;5053756;28;19908;-69
2022/04/29 13:09:56;;;;;;;;;;;23.50;86.50;;;;;;5053870;28;20011;-70
2022/04/29 13:12:22;;;;;;;;;;;23.70;86.20;;;;;;5053925;28;19996;-69
2022/04/29 13:14:48;;;;;;;;;;;23.80;86.00;;;;;;5054257;28;19908;-69
2022/04/29 13:17:14;;;;;;;;;;;23.40;90.00;;;;;;5054271;28;19909;-70
2022/04/29 13:19:39;;;;;;;;;;;23.10;90.50;;;;;;5054520;28;20035;-69
2022/04/29 13:22:06;;;;;;;;;;;23.10;91.60;;;;;;5054219;28;19985;-71
2022/04/29 13:24:32;;;;;;;;;;;23.20;92.40;;;;;;5052949;28;19989;-71
2022/04/29 13:26:58;;;;;;;;;;;23.30;92.60;;;;;;5054067;28;19913;-71
2022/04/29 13:29:24;;;;;;;;;;;23.50;92.50;;;;;;5054556;28;20345;-71
2022/04/29 13:31:50;;;;;;;;;;;23.60;92.30;;;;;;5054064;28;19909;-71
2022/04/29 13:34:16;;;;;;;;;;;23.70;92.10;;;;;;5053957;28;20278;-71
2022/04/29 13:36:42;;;;;;;;;;;23.60;92.50;;;;;;5053660;28;19950;-71
2022/04/29 13:39:08;;;;;;;;;;;23.60;92.90;;;;;;5054497;28;20353;-71
2022/04/29 13:41:34;;;;;;;;;;;23.60;92.90;;;;;;5053769;28;19917;-71
2022/04/29 13:43:59;;;;;;;;;;;23.80;92.90;;;;;;5053815;28;19975;-71
2022/04/29 13:46:25;;;;;;;;;;;23.90;92.80;;;;;;5053553;28;19909;-71
2022/04/29 13:48:51;;;;;;;;;;;23.70;92.80;;;;;;5053150;28;19917;-68
2022/04/29 13:51:17;;;;;;;;;;;23.80;93.10;;;;;;5053797;28;19913;-71
2022/04/29 13:53:43;;;;;;;;;;;23.90;93.50;;;;;;5054053;28;19934;-71
2022/04/29 13:56:09;;;;;;;;;;;23.90;93.50;;;;;;5053532;28;19932;-71
2022/04/29 13:58:34;;;;;;;;;;;23.80;93.40;;;;;;5052506;28;20364;-71
2022/04/29 14:01:00;;;;;;;;;;;23.60;93.40;;;;;;5052703;28;20007;-71
2022/04/29 14:03:26;;;;;;;;;;;23.30;94.00;;;;;;5053086;28;20008;-72
2022/04/29 14:05:52;;;;;;;;;;;23.10;94.80;;;;;;5052526;28;19932;-71
2022/04/29 14:08:18;;;;;;;;;;;22.80;94.90;;;;;;5052663;28;20226;-70
2022/04/29 14:10:45;;;;;;;;;;;22.50;94.90;;;;;;5053302;28;19938;-71
2022/04/29 14:13:11;;;;;;;;;;;22.60;96.00;;;;;;5052959;28;19919;-70
2022/04/29 14:15:37;;;;;;;;;;;22.60;96.10;;;;;;5052674;28;19916;-72
2022/04/29 14:18:04;;;;;;;;;;;22.70;95.80;;;;;;5052848;28;19908;-72
2022/04/29 14:20:30;;;;;;;;;;;22.80;95.50;;;;;;5052926;28;20341;-70
2022/04/29 14:22:56;;;;;;;;;;;22.80;94.90;;;;;;5052956;28;20333;-72
2022/04/29 14:25:22;;;;;;;;;;;22.70;95.10;;;;;;5053202;28;19931;-71
2022/04/29 14:27:49;;;;;;;;;;;22.70;95.30;;;;;;5052999;28;19908;-71
2022/04/29 14:30:15;;;;;;;;;;;22.30;95.70;;;;;;5053366;28;19917;-70
2022/04/29 14:32:41;;;;;;;;;;;22.20;96.30;;;;;;5053106;28;20004;-71
2022/04/29 14:35:07;;;;;;;;;;;22.20;96.70;;;;;;5053291;28;20298;-71
2022/04/29 14:37:34;;;;;;;;;;;22.30;96.90;;;;;;5052574;28;19921;-71
2022/04/29 14:40:01;;;;;;;;;;;22.30;96.80;;;;;;5052802;28;19999;-68
2022/04/29 14:42:27;;;;;;;;;;;22.40;96.60;;;;;;5052523;28;19913;-71
2022/04/29 14:44:53;;;;;;;;;;;22.40;96.70;;;;;;5052410;28;19908;-71